Time;durP1;ratioP1;P1;durP2;ratioP2;P2;SDS_P1;SDS_P2;PMS_P1;PMS_P2;Temp;Humidity;BMP_temperature;BMP_pressure;BME280_temperature;BME280_humidity;BME280_pressure;Samples;Min_cycle;Max_cycle;Signal;HPM_P1;HPM_P2
2022/08/07 00:01:05;;;;;;;2.70;2.50;;;;;;;18.26;100.00;99929.06;5046590;28;20233;-78
2022/08/07 00:03:51;;;;;;;5.57;2.40;;;;;;;18.24;100.00;99925.00;5043741;28;20227;-77
2022/08/07 00:06:20;;;;;;;3.00;2.70;;;;;;;18.20;100.00;99919.25;5042899;28;20230;-78
2022/08/07 00:09:00;;;;;;;2.83;2.50;;;;;;;18.18;100.00;99924.13;5045722;28;20692;-78
2022/08/07 00:11:43;;;;;;;3.00;2.73;;;;;;;18.20;100.00;99930.09;5044223;28;20233;-78
2022/08/07 00:14:22;;;;;;;2.90;2.70;;;;;;;18.14;100.00;99939.31;5044588;28;20237;-78
2022/08/07 00:16:51;;;;;;;2.80;2.50;;;;;;;18.19;100.00;99928.50;5040443;28;20220;-78
2022/08/07 00:19:18;;;;;;;2.80;2.60;;;;;;;18.16;100.00;99922.75;5039726;28;20254;-79
2022/08/07 00:21:47;;;;;;;3.10;2.80;;;;;;;18.17;100.00;99930.63;5038937;28;20713;-78
2022/08/07 00:24:23;;;;;;;5.03;2.73;;;;;;;18.36;100.00;99931.00;5036577;28;20635;-78
2022/08/07 00:26:51;;;;;;;2.93;2.50;;;;;;;18.29;100.00;99925.81;5037412;28;20958;-78
2022/08/07 00:29:32;;;;;;;3.03;2.80;;;;;;;18.36;100.00;99937.25;5040894;28;20295;-77
2022/08/07 00:32:02;;;;;;;2.60;2.40;;;;;;;18.33;100.00;99929.66;5040780;28;20288;-77
2022/08/07 00:34:31;;;;;;;2.50;2.30;;;;;;;18.31;100.00;99928.28;5036684;28;20229;-76
2022/08/07 00:37:01;;;;;;;2.97;2.70;;;;;;;18.29;100.00;99930.44;5038142;28;20229;-78
2022/08/07 00:39:32;;;;;;;2.97;2.60;;;;;;;18.40;100.00;99927.50;5036041;28;20233;-78
2022/08/07 00:41:59;;;;;;;2.40;2.20;;;;;;;18.43;100.00;99924.25;5036651;28;20308;-78
2022/08/07 00:44:31;;;;;;;2.77;2.57;;;;;;;18.34;100.00;99928.56;5036654;28;20320;-78
2022/08/07 00:47:00;;;;;;;3.30;2.80;;;;;;;18.43;100.00;99937.81;5036478;28;20243;-78
2022/08/07 00:49:27;;;;;;;2.57;2.37;;;;;;;18.34;100.00;99933.97;5041718;28;20230;-77
2022/08/07 00:52:13;;;;;;;2.53;2.33;;;;;;;18.36;100.00;99944.56;4997827;28;1193043;-77
2022/08/07 00:54:46;;;;;;;2.50;2.30;;;;;;;18.39;100.00;99934.00;5037347;28;20226;-78
2022/08/07 00:57:23;;;;;;;3.00;2.63;;;;;;;18.26;100.00;99928.25;5039905;28;20793;-79
2022/08/07 00:59:52;;;;;;;2.77;2.20;;;;;;;18.42;100.00;99935.41;5041926;28;20240;-77
2022/08/07 01:02:20;;;;;;;2.93;2.60;;;;;;;18.39;100.00;99939.44;5039698;28;20325;-79
2022/08/07 01:04:55;;;;;;;2.93;2.40;;;;;;;18.39;100.00;99941.31;5038068;28;20266;-77
2022/08/07 01:07:26;;;;;;;2.83;2.47;;;;;;;18.30;100.00;99930.16;5035788;28;20231;-78
2022/08/07 01:09:55;;;;;;;2.30;2.20;;;;;;;18.35;100.00;99922.06;5038183;28;20320;-78
2022/08/07 01:12:40;;;;;;;2.30;2.20;;;;;;;18.31;100.00;99928.28;5042173;28;20260;-78
2022/08/07 01:15:23;;;;;;;3.13;2.30;;;;;;;18.38;100.00;99926.16;5029290;28;20268;-77
2022/08/07 01:18:09;;;;;;;3.03;2.30;;;;;;;18.30;100.00;99918.50;5031223;28;20299;-79
2022/08/07 01:20:52;;;;;;;3.10;2.30;;;;;;;18.40;100.00;99913.94;5044020;28;20719;-78
2022/08/07 01:23:28;;;;;;;2.10;2.00;;;;;;;18.22;100.00;99911.69;5029735;28;20708;-80
2022/08/07 01:26:07;;;;;;;3.30;2.30;;;;;;;18.27;100.00;99914.44;5043591;28;20672;-78
2022/08/07 01:28:40;;;;;;;2.40;2.20;;;;;;;18.40;100.00;99922.09;5044525;28;20240;-78
2022/08/07 01:31:18;;;;;;;2.67;2.37;;;;;;;18.29;100.00;99920.38;5044313;28;20272;-77
2022/08/07 01:33:47;;;;;;;2.63;2.30;;;;;;;18.33;100.00;99920.69;5043408;28;20237;-77
2022/08/07 01:36:27;;;;;;;2.93;2.30;;;;;;;18.25;100.00;99915.75;5060624;28;20230;-78
2022/08/07 01:39:02;;;;;;;2.83;2.20;;;;;;;18.20;100.00;99918.44;5026662;28;20656;-79
2022/08/07 01:41:38;;;;;;;3.03;2.40;;;;;;;18.17;100.00;99930.63;5044426;28;20221;-78
2022/08/07 01:44:23;;;;;;;2.20;2.00;;;;;;;18.13;100.00;99924.09;5042811;28;20245;-78
2022/08/07 01:46:50;;;;;;;2.40;2.20;;;;;;;18.17;100.00;99921.69;5042783;28;20225;-77
2022/08/07 01:49:17;;;;;;;2.70;2.50;;;;;;;18.21;100.00;99926.31;5026169;28;20325;-78
2022/08/07 01:51:48;;;;;;;2.30;2.10;;;;;;;18.29;99.42;99919.59;5046393;28;20271;-79
2022/08/07 01:54:36;;;;;;;2.20;1.90;;;;;;;18.14;100.00;99924.94;5049485;28;20302;-78
2022/08/07 01:57:18;;;;;;;2.43;2.23;;;;;;;18.14;100.00;99908.66;5047483;28;20234;-78
2022/08/07 02:00:11;;;;;;;2.73;2.23;;;;;;;18.16;100.00;99918.16;5030019;28;20237;-78
2022/08/07 02:02:54;;;;;;;2.60;2.40;;;;;;;18.06;100.00;99918.06;5045851;28;20232;-78
2022/08/07 02:05:46;;;;;;;2.40;2.20;;;;;;;18.06;100.00;99917.28;5046765;28;20232;-77
2022/08/07 02:08:28;;;;;;;2.47;2.23;;;;;;;18.11;99.90;99928.13;5016610;28;20578;-78
2022/08/07 02:10:58;;;;;;;2.23;2.03;;;;;;;18.01;100.00;99924.28;5022860;28;20648;-78
2022/08/07 02:13:29;;;;;;;2.20;2.10;;;;;;;18.11;99.85;99926.25;5055998;28;20704;-78
2022/08/07 02:16:17;;;;;;;2.40;2.20;;;;;;;18.09;100.00;99928.41;5050096;28;20244;-77
2022/08/07 02:18:46;;;;;;;2.47;2.10;;;;;;;18.10;98.47;99918.41;5053125;28;20305;-77
2022/08/07 02:21:14;;;;;;;2.47;1.90;;;;;;;18.11;98.19;99912.69;5048655;28;20229;-78
2022/08/07 02:23:43;;;;;;;2.53;2.27;;;;;;;18.12;97.09;99921.66;5035502;28;20333;-77
2022/08/07 02:26:11;;;;;;;2.53;2.17;;;;;;;18.04;98.30;99914.81;5048140;28;20307;-78
2022/08/07 02:28:59;;;;;;;2.33;2.00;;;;;;;18.12;97.20;99906.19;5053059;28;20258;-77
2022/08/07 02:31:26;;;;;;;2.73;2.03;;;;;;;17.98;99.84;99911.25;5055782;28;20577;-79
2022/08/07 02:33:56;;;;;;;3.13;1.87;;;;;;;18.02;99.74;99908.84;5055348;28;20229;-80
2022/08/07 02:36:43;;;;;;;2.43;2.00;;;;;;;18.06;98.50;99928.91;5034619;28;20235;-78
2022/08/07 02:39:14;;;;;;;2.30;2.10;;;;;;;17.99;99.06;99912.91;5033698;28;20225;-77
2022/08/07 02:42:02;;;;;;;2.90;2.13;;;;;;;18.00;98.17;99905.59;5051675;28;20260;-76
2022/08/07 02:44:41;;;;;;;2.40;2.20;;;;;;;17.96;98.62;99905.28;5033495;28;20294;-78
2022/08/07 02:47:16;;;;;;;2.40;2.20;;;;;;;18.04;97.12;99901.28;5032037;28;20260;-77
2022/08/07 02:49:48;;;;;;;2.40;2.20;;;;;;;18.14;94.95;99903.22;5034553;28;20294;-77
2022/08/07 02:52:31;;;;;;;2.63;2.40;;;;;;;17.92;97.91;99895.22;5046357;28;20238;-78
2022/08/07 02:55:03;;;;;;;2.83;2.20;;;;;;;17.87;98.42;99898.72;5031558;28;20275;-78
2022/08/07 02:57:30;;;;;;;2.57;2.20;;;;;;;17.93;100.00;99896.84;5064745;28;20233;-77
2022/08/07 03:00:04;;;;;;;2.20;2.10;;;;;;;17.93;100.00;99894.97;5049003;28;20638;-78
2022/08/07 03:02:40;;;;;;;4.53;2.50;;;;;;;17.82;100.00;99895.16;5077876;28;20227;-78
2022/08/07 03:05:21;;;;;;;2.93;2.37;;;;;;;17.61;100.00;99894.19;5032404;28;20233;-77
2022/08/07 03:07:51;;;;;;;4.07;2.30;;;;;;;17.59;100.00;99896.31;5032820;28;20605;-77
2022/08/07 03:10:40;;;;;;;2.70;2.50;;;;;;;17.58;100.00;99890.13;5036391;28;20233;-78
2022/08/07 03:13:17;;;;;;;2.50;2.30;;;;;;;17.48;100.00;99886.47;5032080;28;20244;-77
2022/08/07 03:15:47;;;;;;;2.70;2.50;;;;;;;17.46;100.00;99885.91;5045879;28;20241;-77
2022/08/07 03:18:26;;;;;;;3.73;2.50;;;;;;;17.58;100.00;99887.41;5013805;28;20788;-78
2022/08/07 03:21:04;;;;;;;4.43;2.47;;;;;;;17.48;100.00;99883.75;5036833;28;20228;-77
2022/08/07 03:23:37;;;;;;;3.07;2.60;;;;;;;17.43;100.00;99891.84;5044776;28;20280;-77
2022/08/07 03:26:27;;;;;;;2.43;2.23;;;;;;;17.23;100.00;99887.06;5039326;28;20228;-77
2022/08/07 03:28:56;;;;;;;5.23;2.70;;;;;;;17.26;100.00;99891.16;5063472;28;20229;-77
2022/08/07 03:31:25;;;;;;;2.40;2.20;;;;;;;17.39;100.00;99878.00;5043330;28;20232;-78
2022/08/07 03:34:16;;;;;;;3.97;2.53;;;;;;;17.33;100.00;99878.22;5034809;28;20228;-77
2022/08/07 03:36:51;;;;;;;2.70;2.50;;;;;;;17.37;100.00;99887.44;5032470;28;20234;-78
2022/08/07 03:39:20;;;;;;;3.03;2.43;;;;;;;17.35;100.00;99886.91;5035502;28;20252;-77
2022/08/07 03:42:07;;;;;;;2.63;2.43;;;;;;;17.34;100.00;99885.25;5055671;28;20755;-77
2022/08/07 03:44:35;;;;;;;2.63;2.30;;;;;;;17.33;100.00;99881.72;5055797;28;20237;-77
2022/08/07 03:47:04;;;;;;;2.40;2.20;;;;;;;17.25;100.00;99882.22;5051401;28;20245;-78
2022/08/07 03:49:42;;;;;;;2.40;2.17;;;;;;;17.33;100.00;99886.31;5053800;28;20244;-78
2022/08/07 03:52:26;;;;;;;2.97;2.43;;;;;;;17.47;100.00;99885.66;5039138;28;20248;-78
2022/08/07 03:54:57;;;;;;;2.60;2.40;;;;;;;17.62;100.00;99885.00;5051763;28;20278;-78
2022/08/07 03:57:35;;;;;;;2.77;2.40;;;;;;;17.53;100.00;99889.22;5048567;28;20598;-77
2022/08/07 04:00:24;;;;;;;3.10;2.43;;;;;;;17.50;100.00;99881.59;5052460;28;20761;-81
2022/08/07 04:02:55;;;;;;;3.77;2.67;;;;;;;17.46;100.00;99881.28;5049070;28;20249;-78
2022/08/07 04:05:30;;;;;;;2.67;2.47;;;;;;;17.62;100.00;99879.56;5035500;28;20235;-78
2022/08/07 04:08:12;;;;;;;2.50;2.23;;;;;;;17.58;100.00;99882.00;5031187;28;20222;-78
2022/08/07 04:10:42;;;;;;;2.67;2.43;;;;;;;17.56;100.00;99891.41;5048645;28;20738;-78
2022/08/07 04:13:21;;;;;;;3.43;2.20;;;;;;;17.67;100.00;99890.44;5044244;28;20252;-78
2022/08/07 04:15:53;;;;;;;2.57;2.37;;;;;;;17.75;100.00;99892.66;5033385;28;20241;-79
2022/08/07 04:18:20;;;;;;;2.40;2.17;;;;;;;17.80;100.00;99900.03;5035223;28;20229;-78
2022/08/07 04:21:07;;;;;;;2.70;2.40;;;;;;;17.69;100.00;99904.53;5044399;28;20244;-79
2022/08/07 04:23:36;;;;;;;3.67;2.60;;;;;;;17.84;100.00;99893.00;5048420;28;20241;-78
2022/08/07 04:26:22;;;;;;;2.27;2.10;;;;;;;17.90;100.00;99897.38;5021969;28;20642;-78
2022/08/07 04:28:55;;;;;;;2.53;2.30;;;;;;;17.91;100.00;99902.56;5050404;28;20241;-78
2022/08/07 04:31:25;;;;;;;8.07;2.50;;;;;;;17.85;100.00;99900.06;5044073;28;20230;-79
2022/08/07 04:34:12;;;;;;;4.23;2.40;;;;;;;17.85;100.00;99894.63;5043649;28;20240;-78
2022/08/07 04:36:44;;;;;;;3.80;2.30;;;;;;;17.82;100.00;99897.88;5054519;28;20866;-78
2022/08/07 04:39:15;;;;;;;2.60;2.20;;;;;;;17.85;100.00;99898.16;5057317;28;20239;-77
2022/08/07 04:41:44;;;;;;;3.03;2.37;;;;;;;17.95;100.00;99908.25;5048072;28;20908;-78
2022/08/07 04:44:16;;;;;;;2.20;2.00;;;;;;;17.98;100.00;99900.41;5047628;28;20230;-78
2022/08/07 04:46:54;;;;;;;3.67;2.50;;;;;;;18.06;99.51;99899.09;5043458;28;20230;-78
2022/08/07 04:49:42;;;;;;;2.27;2.17;;;;;;;18.16;97.51;99901.06;5032264;28;20606;-78
2022/08/07 04:52:40;;;;;;;3.67;2.30;;;;;;;18.07;99.47;99899.91;5037368;28;20662;-78
2022/08/07 04:55:28;;;;;;;3.40;2.27;;;;;;;18.19;97.57;99904.09;5037646;28;20255;-78
2022/08/07 04:58:39;;;;;;;2.60;2.40;;;;;;;18.25;94.89;99903.00;5038688;28;20346;-78
2022/08/07 05:01:49;;;;;;;2.50;2.30;;;;;;;18.39;94.45;99906.06;5047174;28;20237;-78
2022/08/07 05:04:54;;;;;;;2.40;2.20;;;;;;;18.53;93.47;99903.69;5033942;28;20226;-79
2022/08/07 05:07:43;;;;;;;2.40;2.20;;;;;;;18.55;91.42;99901.56;5042474;28;20957;-78
2022/08/07 05:10:23;;;;;;;2.50;2.30;;;;;;;18.52;93.03;99908.31;5036998;28;20645;-78
2022/08/07 05:12:57;;;;;;;2.50;1.90;;;;;;;18.54;93.68;99916.22;5029389;28;20233;-78
2022/08/07 05:15:48;;;;;;;2.47;2.20;;;;;;;18.58;92.92;99912.69;5022507;28;20636;-77
2022/08/07 05:18:23;;;;;;;3.30;2.63;;;;;;;18.70;92.29;99912.50;5041179;28;20229;-78
2022/08/07 05:20:54;;;;;;;2.40;2.20;;;;;;;18.95;88.25;99915.28;5029504;28;20249;-78
2022/08/07 05:23:35;;;;;;;2.40;2.20;;;;;;;19.02;88.71;99915.03;5054799;28;20313;-78
2022/08/07 05:26:04;;;;;;;2.73;2.20;;;;;;;19.26;83.97;99913.44;5037590;28;20239;-78
2022/08/07 05:28:47;;;;;;;2.27;2.13;;;;;;;19.52;81.46;99904.25;5041499;28;20226;-78
2022/08/07 05:31:22;;;;;;;2.30;2.10;;;;;;;19.60;80.41;99914.56;5041526;28;20725;-78
2022/08/07 05:34:01;;;;;;;2.37;2.20;;;;;;;19.74;79.66;99918.38;5040069;28;20227;-79
2022/08/07 05:36:36;;;;;;;2.73;2.10;;;;;;;19.75;78.54;99913.75;5076426;28;20225;-78
2022/08/07 05:39:10;;;;;;;2.50;2.30;;;;;;;19.71;78.40;99916.22;5043875;28;20255;-78
2022/08/07 05:42:00;;;;;;;2.40;2.20;;;;;;;19.78;78.43;99918.69;5026218;28;20768;-81
2022/08/07 05:44:36;;;;;;;2.57;2.30;;;;;;;19.64;79.38;99912.16;5044451;28;20320;-78
2022/08/07 05:47:13;;;;;;;3.10;2.20;;;;;;;19.55;78.92;99909.13;5040629;28;20233;-83
2022/08/07 05:49:48;;;;;;;2.77;2.20;;;;;;;19.49;80.68;99921.13;5025549;28;20233;-82
2022/08/07 05:52:17;;;;;;;4.47;2.30;;;;;;;19.33;82.85;99919.44;5028015;28;20242;-83
2022/08/07 05:54:47;;;;;;;2.47;2.10;;;;;;;19.18;83.75;99916.69;5045960;28;20336;-82
2022/08/07 05:57:25;;;;;;;2.07;1.97;;;;;;;19.34;82.38;99919.16;5046398;28;20772;-84
2022/08/07 06:00:00;;;;;;;3.57;2.20;;;;;;;19.39;80.53;99923.78;5044443;28;20263;-83
2022/08/07 06:02:39;;;;;;;3.67;2.20;;;;;;;19.40;79.72;99920.00;5048488;28;20236;-83
2022/08/07 06:05:12;;;;;;;2.63;2.20;;;;;;;19.70;77.79;99927.34;5037286;28;20238;-83
2022/08/07 06:07:45;;;;;;;2.13;2.00;;;;;;;19.65;77.48;99930.06;5045927;28;20226;-85
2022/08/07 06:10:35;;;;;;;2.53;1.90;;;;;;;19.86;76.46;99937.16;5051062;28;20234;-83
2022/08/07 06:13:04;;;;;;;3.70;2.17;;;;;;;19.99;74.07;99938.50;5035054;28;20313;-84
2022/08/07 06:15:39;;;;;;;3.73;2.43;;;;;;;20.08;73.89;99929.50;5048579;28;20254;-84
2022/08/07 06:18:12;;;;;;;2.07;1.97;;;;;;;20.25;71.68;99928.41;5013276;28;20658;-84
2022/08/07 06:20:42;;;;;;;2.20;1.90;;;;;;;20.15;73.13;99931.94;5035646;28;20281;-84
2022/08/07 06:23:31;;;;;;;2.73;2.30;;;;;;;20.11;72.39;99931.66;5036398;28;20319;-84
2022/08/07 06:26:18;;;;;;;2.70;2.20;;;;;;;19.89;74.17;99928.44;5044665;28;20579;-83
2022/08/07 06:28:48;;;;;;;2.33;1.87;;;;;;;19.93;73.09;99934.13;5051786;28;20237;-83
2022/08/07 06:31:19;;;;;;;2.20;2.00;;;;;;;19.99;74.34;99936.59;5030722;28;20243;-83
2022/08/07 06:33:50;;;;;;;3.50;2.20;;;;;;;20.05;74.92;99930.06;5020122;28;20245;-84
2022/08/07 06:36:17;;;;;;;2.70;2.13;;;;;;;20.17;74.75;99933.28;5031945;28;20232;-84
2022/08/07 06:39:02;;;;;;;4.07;2.40;;;;;;;20.34;73.26;99934.94;5038582;28;20281;-90
2022/08/07 06:41:57;;;;;;;2.03;1.93;;;;;;;20.51;70.38;99932.69;5025903;28;20219;-84
2022/08/07 06:44:48;;;;;;;3.67;2.13;;;;;;;20.51;69.12;99930.78;5053510;28;20230;-84
2022/08/07 06:47:18;;;;;;;3.80;2.10;;;;;;;20.66;68.10;99927.22;5044426;28;20251;-84
2022/08/07 06:49:47;;;;;;;2.13;2.00;;;;;;;20.64;68.33;99935.63;5035072;28;20317;-85
2022/08/07 06:52:29;;;;;;;2.43;2.00;;;;;;;20.71;68.94;99927.19;5033452;28;20282;-83
2022/08/07 06:55:07;;;;;;;2.90;2.33;;;;;;;20.88;66.73;99926.81;5037452;28;20250;-84
2022/08/07 06:57:57;;;;;;;2.50;2.13;;;;;;;20.97;66.91;99927.88;5068818;28;20232;-83
2022/08/07 07:00:31;;;;;;;3.33;2.00;;;;;;;21.20;64.98;99934.56;5015887;28;20244;-84
2022/08/07 07:03:00;;;;;;;5.33;1.90;;;;;;;21.13;65.65;99934.06;5049184;28;20236;-84
2022/08/07 07:05:37;;;;;;;2.30;2.10;;;;;;;21.27;64.41;99921.47;5039190;28;20324;-83
2022/08/07 07:08:25;;;;;;;4.43;2.10;;;;;;;21.24;64.67;99928.28;5039931;28;20260;-83
2022/08/07 07:10:53;;;;;;;2.20;2.00;;;;;;;21.29;64.12;99927.44;5056540;28;20241;-83
2022/08/07 07:13:34;;;;;;;2.60;1.90;;;;;;;21.17;65.82;99930.53;5056962;28;20274;-85
2022/08/07 07:16:24;;;;;;;2.23;2.00;;;;;;;21.16;65.62;99930.78;5034471;28;20323;-85
2022/08/07 07:19:02;;;;;;;4.43;1.93;;;;;;;21.31;64.95;99914.34;5051111;28;20270;-83
2022/08/07 07:21:40;;;;;;;3.00;2.10;;;;;;;21.40;63.81;99918.91;5056830;28;20239;-84
2022/08/07 07:24:26;;;;;;;2.50;1.87;;;;;;;21.59;63.41;99920.97;5028068;28;20224;-85
2022/08/07 07:26:55;;;;;;;2.30;2.03;;;;;;;21.61;63.11;99918.75;5034618;28;20266;-84
2022/08/07 07:29:25;;;;;;;3.77;2.10;;;;;;;21.68;61.71;99916.53;5035790;28;20260;-83
2022/08/07 07:32:13;;;;;;;1.90;1.80;;;;;;;21.38;63.98;99926.56;5041424;28;20231;-86
2022/08/07 07:34:44;;;;;;;2.57;2.03;;;;;;;21.32;64.73;99913.25;5051086;28;20221;-83
2022/08/07 07:37:15;;;;;;;2.17;2.00;;;;;;;21.42;63.30;99913.16;5049256;28;20236;-84
2022/08/07 07:40:05;;;;;;;2.30;2.10;;;;;;;21.51;62.73;99919.63;5053966;28;20265;-84
2022/08/07 07:42:43;;;;;;;2.67;2.10;;;;;;;21.36;63.14;99920.59;5048229;28;20225;-84
2022/08/07 07:45:18;;;;;;;2.07;1.97;;;;;;;21.39;63.15;99908.28;5050153;28;20282;-85
2022/08/07 07:48:06;;;;;;;2.10;1.90;;;;;;;21.64;61.64;99907.28;5049393;28;20264;-84
2022/08/07 07:50:37;;;;;;;2.23;2.03;;;;;;;21.71;61.85;99910.47;5058724;28;20238;-83
2022/08/07 07:53:09;;;;;;;2.20;1.90;;;;;;;21.85;60.27;99908.72;5033997;28;20708;-84
2022/08/07 07:55:56;;;;;;;2.20;2.00;;;;;;;22.12;58.35;99914.47;5056104;28;20233;-84
2022/08/07 07:58:33;;;;;;;2.10;2.00;;;;;;;22.19;58.53;99914.16;5056430;28;20238;-84
2022/08/07 08:01:08;;;;;;;3.70;2.20;;;;;;;22.34;57.82;99905.81;5048574;28;20308;-85
2022/08/07 08:03:56;;;;;;;4.10;2.03;;;;;;;22.40;57.35;99902.72;5071784;28;20250;-84
2022/08/07 08:06:39;;;;;;;2.77;1.97;;;;;;;22.69;55.68;99897.19;5053620;28;20313;-85
2022/08/07 08:09:19;;;;;;;2.27;1.97;;;;;;;22.65;54.65;99907.06;5045665;28;20233;-84
2022/08/07 08:11:49;;;;;;;2.73;2.07;;;;;;;22.81;54.62;99915.91;5058142;28;20344;-84
2022/08/07 08:14:31;;;;;;;2.20;2.00;;;;;;;22.87;54.67;99912.00;5019509;28;20338;-84
2022/08/07 08:17:03;;;;;;;2.40;2.20;;;;;;;22.78;55.16;99908.28;5056235;28;20597;-83
2022/08/07 08:19:52;;;;;;;2.10;1.90;;;;;;;22.45;55.89;99917.41;5041654;28;20241;-84
2022/08/07 08:28:20;;;;;;;2.20;2.00;;;;;;;22.89;55.28;99909.78;5040536;28;20643;-83
2022/08/07 08:31:06;;;;;;;1.77;1.60;;;;;;;23.43;53.85;99913.91;5021157;28;20248;-83
2022/08/07 08:33:41;;;;;;;3.47;2.07;;;;;;;23.48;52.35;99898.28;5052892;28;20275;-83
2022/08/07 08:36:15;;;;;;;2.65;1.88;;;;;;;23.53;52.18;99905.59;5057150;28;20755;-83
2022/08/07 08:38:43;;;;;;;3.00;2.10;;;;;;;23.82;50.55;99899.91;5055698;28;20243;-83
2022/08/07 08:41:16;;;;;;;2.05;1.92;;;;;;;23.67;52.14;99901.78;5053980;28;20233;-83
2022/08/07 08:43:49;;;;;;;1.98;1.70;;;;;;;24.15;50.06;99915.19;5049945;28;20229;-83
2022/08/07 08:46:33;;;;;;;2.30;2.10;;;;;;;24.33;49.15;99917.06;5060368;28;20236;-84
2022/08/07 08:49:43;;;;;;;2.30;2.10;;;;;;;24.16;49.08;99907.78;5030838;28;20233;-83
2022/08/07 08:52:33;;;;;;;2.47;2.28;;;;;;;24.11;50.20;99906.78;5050268;28;20791;-84
2022/08/07 08:55:18;;;;;;;2.95;2.20;;;;;;;24.04;50.60;99909.06;5048486;28;20703;-83
2022/08/07 08:58:17;;;;;;;2.45;2.25;;;;;;;24.45;48.91;99913.84;5043695;28;20233;-85
2022/08/07 09:00:52;;;;;;;2.90;1.98;;;;;;;24.60;47.88;99913.50;5040254;28;20252;-83
2022/08/07 09:03:33;;;;;;;5.13;2.00;;;;;;;24.32;48.54;99903.66;5037922;28;20304;-85
2022/08/07 09:06:38;;;;;;;6.20;2.45;;;;;;;24.55;48.41;99911.69;5028803;28;20768;-83
2022/08/07 09:09:20;;;;;;;4.03;2.33;;;;;;;24.54;48.82;99914.75;5042956;28;20225;-83
2022/08/07 09:12:20;;;;;;;2.85;2.08;;;;;;;24.76;47.18;99903.88;5035307;28;20233;-82
2022/08/07 09:15:36;;;;;;;3.13;2.05;;;;;;;25.07;46.72;99909.50;5045601;28;20699;-83
2022/08/07 09:18:31;;;;;;;2.95;2.25;;;;;;;25.47;45.45;99909.69;5067575;28;20237;-83
2022/08/07 09:21:24;;;;;;;2.85;2.17;;;;;;;25.51;44.97;99908.75;5055919;28;20218;-82
2022/08/07 09:24:21;;;;;;;2.20;2.00;;;;;;;25.64;44.47;99907.91;5033403;28;20241;-83
2022/08/07 09:27:23;;;;;;;3.47;1.98;;;;;;;24.74;46.13;99906.09;5048949;28;20274;-84
2022/08/07 09:30:03;;;;;;;3.88;2.13;;;;;;;24.77;46.43;99891.78;5048812;28;20252;-83
2022/08/07 09:32:53;;;;;;;2.40;2.20;;;;;;;24.71;47.15;99886.72;5050900;28;20258;-83
2022/08/07 09:35:48;;;;;;;4.85;2.10;;;;;;;24.47;47.67;99895.16;5049396;28;20244;-83
2022/08/07 09:38:49;;;;;;;2.33;1.92;;;;;;;24.62;48.58;99888.56;5050435;28;20233;-84
2022/08/07 09:41:28;;;;;;;3.33;2.30;;;;;;;24.46;48.38;99899.81;5046214;28;20724;-84
2022/08/07 09:44:29;;;;;;;3.08;2.20;;;;;;;23.51;50.84;99885.94;5049923;28;20317;-83
2022/08/07 09:47:33;;;;;;;3.58;2.00;;;;;;;23.96;50.55;99893.34;5051204;28;20235;-83
2022/08/07 09:50:40;;;;;;;2.85;2.10;;;;;;;24.05;51.00;99888.00;5019343;28;20326;-83
2022/08/07 09:53:10;;;;;;;2.28;2.08;;;;;;;24.29;49.42;99883.19;5000616;28;20233;-83
2022/08/07 09:56:13;;;;;;;2.22;1.98;;;;;;;24.26;49.21;99891.22;5033306;28;20230;-84
2022/08/07 09:59:23;;;;;;;3.28;2.17;;;;;;;24.73;49.02;99879.00;5045878;28;20235;-82
2022/08/07 10:02:20;;;;;;;4.43;2.35;;;;;;;25.07;48.16;99878.53;5049648;28;20233;-82
2022/08/07 10:05:25;;;;;;;2.35;2.15;;;;;;;25.04;46.58;99866.28;5059019;28;20236;-83
2022/08/07 10:08:46;;;;;;;3.00;2.00;;;;;;;25.40;47.50;99866.25;5041473;28;20680;-83
2022/08/07 10:11:28;;;;;;;4.00;2.10;;;;;;;25.16;45.75;99877.50;5049595;28;20265;-83
2022/08/07 10:14:53;;;;;;;1.95;1.80;;;;;;;25.35;46.65;99866.34;5044143;28;20283;-84
2022/08/07 10:17:55;;;;;;;2.20;2.00;;;;;;;24.87;47.93;99864.19;5044135;28;20249;-83
2022/08/07 10:21:10;;;;;;;2.38;2.10;;;;;;;25.36;46.00;99857.00;5076408;28;20256;-83
2022/08/07 10:24:27;;;;;;;2.08;1.88;;;;;;;25.04;46.03;99859.97;5043237;28;20237;-84
2022/08/07 10:27:11;;;;;;;2.42;1.92;;;;;;;24.88;47.78;99854.03;5071741;28;20244;-83
2022/08/07 10:30:05;;;;;;;2.97;2.10;;;;;;;25.15;47.52;99851.19;5043749;28;20976;-83
2022/08/07 10:32:35;;;;;;;3.33;2.20;;;;;;;25.35;45.94;99847.97;5040803;28;20317;-83
2022/08/07 10:35:28;;;;;;;2.42;1.80;;;;;;;25.35;46.96;99834.25;5049184;28;20312;-83
2022/08/07 10:38:43;;;;;;;2.65;2.17;;;;;;;25.18;47.36;99839.63;5045003;28;20794;-83
2022/08/07 10:41:32;;;;;;;3.50;2.25;;;;;;;25.85;46.44;99834.91;5058807;28;20928;-83
2022/08/07 10:44:42;;;;;;;2.60;1.90;;;;;;;26.21;45.73;99833.97;5047206;28;20707;-83
2022/08/07 10:47:26;;;;;;;2.25;1.95;;;;;;;25.55;45.97;99834.91;5026810;28;20230;-83
2022/08/07 10:50:19;;;;;;;3.25;1.90;;;;;;;25.92;45.96;99823.47;5043555;28;20260;-82
2022/08/07 10:52:58;;;;;;;3.08;2.10;;;;;;;26.33;44.45;99825.91;5031572;28;20239;-82
2022/08/07 10:56:18;;;;;;;2.85;2.10;;;;;;;25.83;45.58;99815.22;5032435;28;20776;-82
2022/08/07 10:59:18;;;;;;;4.25;2.17;;;;;;;25.84;45.31;99818.78;5047680;28;20735;-83
2022/08/07 11:02:16;;;;;;;2.67;2.00;;;;;;;25.73;45.73;99817.41;5049188;28;20691;-83
2022/08/07 11:05:17;;;;;;;2.88;2.08;;;;;;;25.79;45.84;99813.41;5046360;28;20229;-83
2022/08/07 11:08:06;;;;;;;2.38;2.17;;;;;;;25.32;46.72;99804.72;5048190;28;20236;-83
2022/08/07 11:10:51;;;;;;;2.13;2.03;;;;;;;25.94;46.50;99812.19;5048429;28;20225;-83
2022/08/07 11:13:37;;;;;;;2.55;1.95;;;;;;;26.13;45.09;99799.03;5050427;28;20231;-84
2022/08/07 11:16:27;;;;;;;1.92;1.83;;;;;;;26.06;45.80;99804.97;5060859;28;20663;-83
2022/08/07 11:19:15;;;;;;;3.38;2.35;;;;;;;26.14;45.66;99795.13;5051990;28;20231;-83
2022/08/07 11:22:13;;;;;;;2.33;2.13;;;;;;;26.60;43.90;99795.44;5035094;28;20314;-83
2022/08/07 11:25:21;;;;;;;2.17;1.92;;;;;;;27.02;42.46;99793.03;5050965;28;20306;-82
2022/08/07 11:28:11;;;;;;;2.75;1.80;;;;;;;26.50;43.44;99792.19;5033552;28;20786;-82
2022/08/07 11:31:21;;;;;;;6.75;2.45;;;;;;;27.18;42.51;99791.44;5033731;28;20308;-83
2022/08/07 11:33:53;;;;;;;3.03;1.80;;;;;;;27.05;42.31;99784.97;5056835;28;20323;-82
2022/08/07 11:36:47;;;;;;;2.20;2.00;;;;;;;27.31;41.84;99789.63;5054384;28;20233;-82
2022/08/07 11:39:37;;;;;;;2.40;2.20;;;;;;;27.63;41.50;99786.34;5092800;28;20254;-82
2022/08/07 11:42:38;;;;;;;4.82;2.30;;;;;;;28.11;39.97;99790.72;5055205;28;20225;-83
2022/08/07 11:45:25;;;;;;;2.38;1.80;;;;;;;27.89;40.04;99786.25;5054930;28;20225;-82
2022/08/07 11:48:30;;;;;;;2.00;1.90;;;;;;;27.96;39.91;99778.28;5059299;28;20328;-82
2022/08/07 11:51:22;;;;;;;3.17;1.70;;;;;;;28.22;39.05;99770.72;5021049;28;20237;-82
2022/08/07 11:54:45;;;;;;;3.58;1.80;;;;;;;28.94;38.03;99764.03;5051883;28;20226;-82
2022/08/07 11:57:29;;;;;;;2.20;1.77;;;;;;;29.03;37.75;99763.97;5018743;28;20733;-83
2022/08/07 12:00:18;;;;;;;1.90;1.77;;;;;;;28.27;38.82;99759.53;5054261;28;20229;-82
2022/08/07 12:03:12;;;;;;;2.97;1.92;;;;;;;28.20;38.88;99755.66;5049752;28;20331;-82
2022/08/07 12:06:16;;;;;;;3.20;1.80;;;;;;;28.64;38.18;99757.00;5052321;28;20692;-82
2022/08/07 12:09:05;;;;;;;3.10;1.85;;;;;;;28.74;38.43;99746.38;5050305;28;20767;-82
2022/08/07 12:11:39;;;;;;;1.95;1.75;;;;;;;29.11;37.68;99746.53;5049304;28;20728;-82
2022/08/07 12:14:28;;;;;;;4.40;1.90;;;;;;;29.09;37.71;99746.06;5074431;28;20224;-82
2022/08/07 12:17:16;;;;;;;2.50;1.83;;;;;;;29.47;36.87;99740.34;5047729;28;20218;-84
2022/08/07 12:19:50;;;;;;;2.35;1.77;;;;;;;29.61;36.67;99736.09;5048900;28;20226;-83
2022/08/07 12:22:51;;;;;;;2.95;1.95;;;;;;;29.77;36.10;99746.50;5014179;28;20236;-82
2022/08/07 12:25:52;;;;;;;1.90;1.70;;;;;;;29.69;36.05;99746.22;5053669;28;20282;-84
2022/08/07 12:28:50;;;;;;;1.95;1.75;;;;;;;29.34;36.85;99736.75;5044919;28;20225;-83
2022/08/07 12:31:43;;;;;;;2.08;1.85;;;;;;;28.95;37.33;99740.03;5052006;28;20229;-83
2022/08/07 12:34:35;;;;;;;3.25;1.70;;;;;;;29.52;35.99;99737.34;5046777;28;20688;-82
2022/08/07 12:37:02;;;;;;;4.38;1.67;;;;;;;29.42;35.12;99740.56;5046754;28;20222;-82
2022/08/07 12:39:49;;;;;;;2.80;1.70;;;;;;;29.70;35.33;99733.25;5046138;28;20707;-82
2022/08/07 12:42:24;;;;;;;2.75;1.73;;;;;;;29.75;35.86;99731.06;5034547;28;20233;-85
2022/08/07 12:44:55;;;;;;;4.45;1.73;;;;;;;30.25;35.08;99729.91;5034416;28;20315;-82
2022/08/07 12:47:33;;;;;;;3.20;1.50;;;;;;;30.10;35.55;99728.66;5054601;28;20237;-83